﻿<?xml version="1.0" encoding="utf-8"?><gpx creator="Garmin Desktop App" version="1.1" xsi:schemaLocation="http://www.topografix.com/GPX/1/1 http://www.topografix.com/GPX/1/1/gpx.xsd http://www.garmin.com/xmlschemas/WaypointExtension/v1 http://www8.garmin.com/xmlschemas/WaypointExtensionv1.xsd http://www.garmin.com/xmlschemas/TrackPointExtension/v1 http://www.garmin.com/xmlschemas/TrackPointExtensionv1.xsd http://www.garmin.com/xmlschemas/GpxExtensions/v3 http://www8.garmin.com/xmlschemas/GpxExtensionsv3.xsd http://www.garmin.com/xmlschemas/ActivityExtension/v1 http://www8.garmin.com/xmlschemas/ActivityExtensionv1.xsd http://www.garmin.com/xmlschemas/AdventuresExtensions/v1 http://www8.garmin.com/xmlschemas/AdventuresExtensionv1.xsd http://www.garmin.com/xmlschemas/PressureExtension/v1 http://www.garmin.com/xmlschemas/PressureExtensionv1.xsd http://www.garmin.com/xmlschemas/TripExtensions/v1 http://www.garmin.com/xmlschemas/TripExtensionsv1.xsd http://www.garmin.com/xmlschemas/TripMetaDataExtensions/v1 http://www.garmin.com/xmlschemas/TripMetaDataExtensionsv1.xsd http://www.garmin.com/xmlschemas/ViaPointTransportationModeExtensions/v1 http://www.garmin.com/xmlschemas/ViaPointTransportationModeExtensionsv1.xsd http://www.garmin.com/xmlschemas/CreationTimeExtension/v1 http://www.garmin.com/xmlschemas/CreationTimeExtensionsv1.xsd http://www.garmin.com/xmlschemas/AccelerationExtension/v1 http://www.garmin.com/xmlschemas/AccelerationExtensionv1.xsd http://www.garmin.com/xmlschemas/PowerExtension/v1 http://www.garmin.com/xmlschemas/PowerExtensionv1.xsd http://www.garmin.com/xmlschemas/VideoExtension/v1 http://www.garmin.com/xmlschemas/VideoExtensionv1.xsd" xmlns="http://www.topografix.com/GPX/1/1" xmlns:xsi="http://www.w3.org/2001/XMLSchema-instance" xmlns:wptx1="http://www.garmin.com/xmlschemas/WaypointExtension/v1" xmlns:gpxtrx="http://www.garmin.com/xmlschemas/GpxExtensions/v3" xmlns:gpxtpx="http://www.garmin.com/xmlschemas/TrackPointExtension/v1" xmlns:gpxx="http://www.garmin.com/xmlschemas/GpxExtensions/v3" xmlns:trp="http://www.garmin.com/xmlschemas/TripExtensions/v1" xmlns:adv="http://www.garmin.com/xmlschemas/AdventuresExtensions/v1" xmlns:prs="http://www.garmin.com/xmlschemas/PressureExtension/v1" xmlns:tmd="http://www.garmin.com/xmlschemas/TripMetaDataExtensions/v1" xmlns:vptm="http://www.garmin.com/xmlschemas/ViaPointTransportationModeExtensions/v1" xmlns:ctx="http://www.garmin.com/xmlschemas/CreationTimeExtension/v1" xmlns:gpxacc="http://www.garmin.com/xmlschemas/AccelerationExtension/v1" xmlns:gpxpx="http://www.garmin.com/xmlschemas/PowerExtension/v1" xmlns:vidx1="http://www.garmin.com/xmlschemas/VideoExtension/v1">

  <metadata>
    <link href="http://www.garmin.com">
      <text>Garmin International</text>
    </link>
    <time>2022-08-28T19:52:17Z</time>
    <bounds maxlat="51.054987274110317" maxlon="5.08004754781723" minlat="51.035140352323651" minlon="5.052551804110408" />
  </metadata>

  <trk>
    <name>gerhage rally 10 km</name>
    <extensions>
      <gpxx:TrackExtension>
        <gpxx:DisplayColor>Red</gpxx:DisplayColor>
      </gpxx:TrackExtension>
    </extensions>
    <trkseg>
      <trkpt lat="51.051882030442357" lon="5.055586472153664">
        <ele>30.550000000000001</ele>
        <time>2022-08-28T08:06:52Z</time>
      </trkpt>
      <trkpt lat="51.051843976601958" lon="5.055526038631797">
        <ele>30.539999999999999</ele>
        <time>2022-08-28T08:06:56Z</time>
      </trkpt>
      <trkpt lat="51.051822435110807" lon="5.055465269833803">
        <ele>30.530000000000001</ele>
        <time>2022-08-28T08:07:00Z</time>
      </trkpt>
      <trkpt lat="51.051760828122497" lon="5.055272821336985">
        <ele>30.5</ele>
        <time>2022-08-28T08:07:12Z</time>
      </trkpt>
      <trkpt lat="51.051763091236353" lon="5.05512161180377">
        <ele>30.440000000000001</ele>
        <time>2022-08-28T08:07:28Z</time>
      </trkpt>
      <trkpt lat="51.051773149520159" lon="5.055051539093256">
        <ele>30.390000000000001</ele>
        <time>2022-08-28T08:07:56Z</time>
      </trkpt>
      <trkpt lat="51.051776586100459" lon="5.055029997602105">
        <ele>30.370000000000001</ele>
        <time>2022-08-28T08:08:25Z</time>
      </trkpt>
      <trkpt lat="51.051779687404633" lon="5.055008288472891">
        <ele>30.350000000000001</ele>
        <time>2022-08-28T08:08:47Z</time>
      </trkpt>
      <trkpt lat="51.051769880577922" lon="5.054992362856865">
        <ele>30.329999999999998</ele>
        <time>2022-08-28T08:09:14Z</time>
      </trkpt>
      <trkpt lat="51.051822770386934" lon="5.054901586845517">
        <ele>30.309999999999999</ele>
        <time>2022-08-28T08:09:31Z</time>
      </trkpt>
      <trkpt lat="51.052012788131833" lon="5.054609226062894">
        <ele>30.300000000000001</ele>
        <time>2022-08-28T08:09:52Z</time>
      </trkpt>
      <trkpt lat="51.052042292430997" lon="5.054568322375417">
        <ele>30.300000000000001</ele>
        <time>2022-08-28T08:09:54Z</time>
      </trkpt>
      <trkpt lat="51.052142372354865" lon="5.054345866665244">
        <ele>30.300000000000001</ele>
        <time>2022-08-28T08:10:08Z</time>
      </trkpt>
      <trkpt lat="51.052289726212621" lon="5.054248468950391">
        <ele>30.289999999999999</ele>
        <time>2022-08-28T08:10:18Z</time>
      </trkpt>
      <trkpt lat="51.052297940477729" lon="5.054332204163075">
        <ele>30.289999999999999</ele>
        <time>2022-08-28T08:10:33Z</time>
      </trkpt>
      <trkpt lat="51.052375975996256" lon="5.054701929911971">
        <ele>30.210000000000001</ele>
        <time>2022-08-28T08:10:55Z</time>
      </trkpt>
      <trkpt lat="51.052425093948841" lon="5.055080289021134">
        <ele>30.100000000000001</ele>
        <time>2022-08-28T08:11:10Z</time>
      </trkpt>
      <trkpt lat="51.052424255758524" lon="5.055478010326624">
        <ele>29.91</ele>
        <time>2022-08-28T08:11:28Z</time>
      </trkpt>
      <trkpt lat="51.052459040656686" lon="5.055808844044805">
        <ele>29.75</ele>
        <time>2022-08-28T08:11:43Z</time>
      </trkpt>
      <trkpt lat="51.052505224943161" lon="5.055976901203394">
        <ele>30.350000000000001</ele>
        <time>2022-08-28T08:11:58Z</time>
      </trkpt>
      <trkpt lat="51.05259315110743" lon="5.056247217580676">
        <ele>30.149999999999999</ele>
        <time>2022-08-28T08:12:12Z</time>
      </trkpt>
      <trkpt lat="51.0526551771909" lon="5.056506050750613">
        <ele>29.870000000000001</ele>
        <time>2022-08-28T08:12:29Z</time>
      </trkpt>
      <trkpt lat="51.052723238244653" lon="5.056736636906862">
        <ele>30.530000000000001</ele>
        <time>2022-08-28T08:12:36Z</time>
      </trkpt>
      <trkpt lat="51.052870927378535" lon="5.056691290810704">
        <ele>30.260000000000002</ele>
        <time>2022-08-28T08:12:47Z</time>
      </trkpt>
      <trkpt lat="51.053351126611233" lon="5.056702019646764">
        <ele>29.949999999999999</ele>
        <time>2022-08-28T08:13:40Z</time>
      </trkpt>
      <trkpt lat="51.053403681144118" lon="5.057084737345576">
        <ele>29.510000000000002</ele>
        <time>2022-08-28T08:14:00Z</time>
      </trkpt>
      <trkpt lat="51.053483141586185" lon="5.057412553578615">
        <ele>29.09</ele>
        <time>2022-08-28T08:14:18Z</time>
      </trkpt>
      <trkpt lat="51.053541479632258" lon="5.057825027033687">
        <ele>28.66</ele>
        <time>2022-08-28T08:14:36Z</time>
      </trkpt>
      <trkpt lat="51.053684642538428" lon="5.058851558715105">
        <ele>27.190000000000001</ele>
        <time>2022-08-28T08:15:38Z</time>
      </trkpt>
      <trkpt lat="51.053720014169812" lon="5.059456564486027">
        <ele>26.739999999999998</ele>
        <time>2022-08-28T08:16:00Z</time>
      </trkpt>
      <trkpt lat="51.053769215941429" lon="5.059901811182499">
        <ele>26.469999999999999</ele>
        <time>2022-08-28T08:16:15Z</time>
      </trkpt>
      <trkpt lat="51.053882371634245" lon="5.06016181781888">
        <ele>26.420000000000002</ele>
        <time>2022-08-28T08:16:18Z</time>
      </trkpt>
      <trkpt lat="51.054041376337409" lon="5.060218144208193">
        <ele>26.16</ele>
        <time>2022-08-28T08:16:34Z</time>
      </trkpt>
      <trkpt lat="51.054038694128394" lon="5.060270112007856">
        <ele>26.739999999999998</ele>
        <time>2022-08-28T08:16:49Z</time>
      </trkpt>
      <trkpt lat="51.054054535925388" lon="5.060355020686984">
        <ele>26.559999999999999</ele>
        <time>2022-08-28T08:17:03Z</time>
      </trkpt>
      <trkpt lat="51.054103318601847" lon="5.06062064319849">
        <ele>27.149999999999999</ele>
        <time>2022-08-28T08:20:22Z</time>
      </trkpt>
      <trkpt lat="51.054113293066621" lon="5.060664061456919">
        <ele>27.210000000000001</ele>
        <time>2022-08-28T08:20:28Z</time>
      </trkpt>
      <trkpt lat="51.054291743785143" lon="5.060872435569763">
        <ele>27.350000000000001</ele>
        <time>2022-08-28T08:20:49Z</time>
      </trkpt>
      <trkpt lat="51.054458627477288" lon="5.061101345345378">
        <ele>28.289999999999999</ele>
        <time>2022-08-28T08:21:12Z</time>
      </trkpt>
      <trkpt lat="51.054623080417514" lon="5.061256075277925">
        <ele>29.899999999999999</ele>
        <time>2022-08-28T08:21:31Z</time>
      </trkpt>
      <trkpt lat="51.05477437376976" lon="5.061410637572408">
        <ele>30.609999999999999</ele>
        <time>2022-08-28T08:21:51Z</time>
      </trkpt>
      <trkpt lat="51.054987274110317" lon="5.061698472127318">
        <ele>30.59</ele>
        <time>2022-08-28T08:21:54Z</time>
      </trkpt>
      <trkpt lat="51.054857019335032" lon="5.061857309192419">
        <ele>30.390000000000001</ele>
        <time>2022-08-28T08:22:15Z</time>
      </trkpt>
      <trkpt lat="51.054838998243213" lon="5.061929477378726">
        <ele>30.32</ele>
        <time>2022-08-28T08:22:21Z</time>
      </trkpt>
      <trkpt lat="51.054779654368758" lon="5.062877973541617">
        <ele>29.850000000000001</ele>
        <time>2022-08-28T08:23:06Z</time>
      </trkpt>
      <trkpt lat="51.054783677682281" lon="5.063158180564642">
        <ele>29.670000000000002</ele>
        <time>2022-08-28T08:23:23Z</time>
      </trkpt>
      <trkpt lat="51.054790467023849" lon="5.063378876075149">
        <ele>29.350000000000001</ele>
        <time>2022-08-28T08:23:40Z</time>
      </trkpt>
      <trkpt lat="51.054791053757071" lon="5.063633099198341">
        <ele>29.16</ele>
        <time>2022-08-28T08:23:56Z</time>
      </trkpt>
      <trkpt lat="51.054784432053566" lon="5.064027132466435">
        <ele>28.829999999999998</ele>
        <time>2022-08-28T08:24:15Z</time>
      </trkpt>
      <trkpt lat="51.054805554449558" lon="5.064250091090798">
        <ele>28.489999999999998</ele>
        <time>2022-08-28T08:24:37Z</time>
      </trkpt>
      <trkpt lat="51.054779905825853" lon="5.064735906198621">
        <ele>25.629999999999999</ele>
        <time>2022-08-28T08:25:40Z</time>
      </trkpt>
      <trkpt lat="51.054732967168093" lon="5.064996499568224">
        <ele>25.52</ele>
        <time>2022-08-28T08:25:55Z</time>
      </trkpt>
      <trkpt lat="51.054700361564755" lon="5.065238736569881">
        <ele>24.59</ele>
        <time>2022-08-28T08:26:13Z</time>
      </trkpt>
      <trkpt lat="51.054675718769431" lon="5.065288608893752">
        <ele>24.579999999999998</ele>
        <time>2022-08-28T08:26:16Z</time>
      </trkpt>
      <trkpt lat="51.054554097354412" lon="5.065741399303079">
        <ele>24.460000000000001</ele>
        <time>2022-08-28T08:26:30Z</time>
      </trkpt>
      <trkpt lat="51.054384363815188" lon="5.065803173929453">
        <ele>23.510000000000002</ele>
        <time>2022-08-28T08:26:43Z</time>
      </trkpt>
      <trkpt lat="51.054193340241909" lon="5.065832929685712">
        <ele>23.48</ele>
        <time>2022-08-28T08:26:57Z</time>
      </trkpt>
      <trkpt lat="51.054026037454605" lon="5.065881460905075">
        <ele>23.48</ele>
        <time>2022-08-28T08:27:10Z</time>
      </trkpt>
      <trkpt lat="51.0539935156703" lon="5.065889339894056">
        <ele>23.469999999999999</ele>
        <time>2022-08-28T08:27:13Z</time>
      </trkpt>
      <trkpt lat="51.053850939497352" lon="5.065906187519431">
        <ele>23.489999999999998</ele>
        <time>2022-08-28T08:27:28Z</time>
      </trkpt>
      <trkpt lat="51.053619012236595" lon="5.065917586907744">
        <ele>22.760000000000002</ele>
        <time>2022-08-28T08:27:44Z</time>
      </trkpt>
      <trkpt lat="51.053390018641949" lon="5.065894369035959">
        <ele>22.859999999999999</ele>
        <time>2022-08-28T08:28:00Z</time>
      </trkpt>
      <trkpt lat="51.053207460790873" lon="5.065892860293388">
        <ele>22.969999999999999</ele>
        <time>2022-08-28T08:28:13Z</time>
      </trkpt>
      <trkpt lat="51.053014677017927" lon="5.065905014052987">
        <ele>23.079999999999998</ele>
        <time>2022-08-28T08:28:26Z</time>
      </trkpt>
      <trkpt lat="51.052809488028288" lon="5.065930914133787">
        <ele>23.239999999999998</ele>
        <time>2022-08-28T08:28:41Z</time>
      </trkpt>
      <trkpt lat="51.052704630419612" lon="5.065934099256992">
        <ele>23.280000000000001</ele>
        <time>2022-08-28T08:28:49Z</time>
      </trkpt>
      <trkpt lat="51.052555767819285" lon="5.065959328785539">
        <ele>23.379999999999999</ele>
        <time>2022-08-28T08:29:05Z</time>
      </trkpt>
      <trkpt lat="51.05239718221128" lon="5.065963268280029">
        <ele>23.489999999999998</ele>
        <time>2022-08-28T08:29:20Z</time>
      </trkpt>
      <trkpt lat="51.052106330171227" lon="5.066003333777189">
        <ele>23.68</ele>
        <time>2022-08-28T08:29:42Z</time>
      </trkpt>
      <trkpt lat="51.051883203908801" lon="5.06602093577385">
        <ele>22.91</ele>
        <time>2022-08-28T08:30:02Z</time>
      </trkpt>
      <trkpt lat="51.051656473428011" lon="5.06601557135582">
        <ele>22.239999999999998</ele>
        <time>2022-08-28T08:30:24Z</time>
      </trkpt>
      <trkpt lat="51.051520351320505" lon="5.06598673760891">
        <ele>22.25</ele>
        <time>2022-08-28T08:30:35Z</time>
      </trkpt>
      <trkpt lat="51.051334943622351" lon="5.065996628254652">
        <ele>21.43</ele>
        <time>2022-08-28T08:30:49Z</time>
      </trkpt>
      <trkpt lat="51.051112990826368" lon="5.065992018207908">
        <ele>20.640000000000001</ele>
        <time>2022-08-28T08:31:08Z</time>
      </trkpt>
      <trkpt lat="51.050851307809353" lon="5.065993862226605">
        <ele>20.52</ele>
        <time>2022-08-28T08:31:31Z</time>
      </trkpt>
      <trkpt lat="51.05051745660603" lon="5.065974248573184">
        <ele>19.559999999999999</ele>
        <time>2022-08-28T08:31:50Z</time>
      </trkpt>
      <trkpt lat="51.050314363092184" lon="5.065909121185541">
        <ele>19.449999999999999</ele>
        <time>2022-08-28T08:32:07Z</time>
      </trkpt>
      <trkpt lat="51.05009526014328" lon="5.065818848088384">
        <ele>19.280000000000001</ele>
        <time>2022-08-28T08:32:28Z</time>
      </trkpt>
      <trkpt lat="51.049945307895541" lon="5.065708290785551">
        <ele>19.09</ele>
        <time>2022-08-28T08:32:48Z</time>
      </trkpt>
      <trkpt lat="51.049819076433778" lon="5.065570659935474">
        <ele>18.960000000000001</ele>
        <time>2022-08-28T08:33:00Z</time>
      </trkpt>
      <trkpt lat="51.049606176093221" lon="5.065368404611945">
        <ele>18.82</ele>
        <time>2022-08-28T08:33:16Z</time>
      </trkpt>
      <trkpt lat="51.049516405910254" lon="5.065201688557863">
        <ele>18.68</ele>
        <time>2022-08-28T08:33:27Z</time>
      </trkpt>
      <trkpt lat="51.049272827804089" lon="5.064997170120478">
        <ele>18.469999999999999</ele>
        <time>2022-08-28T08:33:43Z</time>
      </trkpt>
      <trkpt lat="51.049145339056849" lon="5.064767086878419">
        <ele>18.289999999999999</ele>
        <time>2022-08-28T08:33:58Z</time>
      </trkpt>
      <trkpt lat="51.04900854639709" lon="5.064424267038703">
        <ele>18.059999999999999</ele>
        <time>2022-08-28T08:34:19Z</time>
      </trkpt>
      <trkpt lat="51.048860354349017" lon="5.064041549339891">
        <ele>17.809999999999999</ele>
        <time>2022-08-28T08:34:40Z</time>
      </trkpt>
      <trkpt lat="51.048572352156043" lon="5.06331835873425">
        <ele>17.489999999999998</ele>
        <time>2022-08-28T08:35:08Z</time>
      </trkpt>
      <trkpt lat="51.048347381874919" lon="5.062900604680181">
        <ele>17.460000000000001</ele>
        <time>2022-08-28T08:35:24Z</time>
      </trkpt>
      <trkpt lat="51.048189969733357" lon="5.062424512580037">
        <ele>17.550000000000001</ele>
        <time>2022-08-28T08:35:47Z</time>
      </trkpt>
      <trkpt lat="51.048050411045551" lon="5.062141288071871">
        <ele>17.649999999999999</ele>
        <time>2022-08-28T08:36:02Z</time>
      </trkpt>
      <trkpt lat="51.047931639477611" lon="5.061886897310615">
        <ele>17.75</ele>
        <time>2022-08-28T08:36:17Z</time>
      </trkpt>
      <trkpt lat="51.047773556783795" lon="5.061661591753364">
        <ele>17.809999999999999</ele>
        <time>2022-08-28T08:36:34Z</time>
      </trkpt>
      <trkpt lat="51.047685295343399" lon="5.061512058600783">
        <ele>17.870000000000001</ele>
        <time>2022-08-28T08:36:48Z</time>
      </trkpt>
      <trkpt lat="51.047664005309343" lon="5.061493534594774">
        <ele>20.199999999999999</ele>
        <time>2022-08-28T08:36:51Z</time>
      </trkpt>
      <trkpt lat="51.0475143045187" lon="5.061350539326668">
        <ele>20.190000000000001</ele>
        <time>2022-08-28T08:37:06Z</time>
      </trkpt>
      <trkpt lat="51.047461749985814" lon="5.061258925125003">
        <ele>20.23</ele>
        <time>2022-08-28T08:37:32Z</time>
      </trkpt>
      <trkpt lat="51.047407602891326" lon="5.061196479946375">
        <ele>21.079999999999998</ele>
        <time>2022-08-28T08:37:51Z</time>
      </trkpt>
      <trkpt lat="51.047140974551439" lon="5.060925995931029">
        <ele>22.16</ele>
        <time>2022-08-28T08:38:05Z</time>
      </trkpt>
      <trkpt lat="51.0468839854002" lon="5.060630617663264">
        <ele>23.809999999999999</ele>
        <time>2022-08-28T08:38:16Z</time>
      </trkpt>
      <trkpt lat="51.046618865802884" lon="5.0603421125561">
        <ele>25.370000000000001</ele>
        <time>2022-08-28T08:38:27Z</time>
      </trkpt>
      <trkpt lat="51.046117292717099" lon="5.059660831466317">
        <ele>30.739999999999998</ele>
        <time>2022-08-28T08:38:50Z</time>
      </trkpt>
      <trkpt lat="51.045924676582217" lon="5.059390850365162">
        <ele>32.700000000000003</ele>
        <time>2022-08-28T08:38:59Z</time>
      </trkpt>
      <trkpt lat="51.045900285243988" lon="5.059349192306399">
        <ele>32.689999999999998</ele>
        <time>2022-08-28T08:39:00Z</time>
      </trkpt>
      <trkpt lat="51.045878827571869" lon="5.059328321367502">
        <ele>32.68</ele>
        <time>2022-08-28T08:39:01Z</time>
      </trkpt>
      <trkpt lat="51.04570540599525" lon="5.059134447947145">
        <ele>33.390000000000001</ele>
        <time>2022-08-28T08:39:13Z</time>
      </trkpt>
      <trkpt lat="51.0454420465976" lon="5.058909729123116">
        <ele>34.210000000000001</ele>
        <time>2022-08-28T08:39:32Z</time>
      </trkpt>
      <trkpt lat="51.044492293149233" lon="5.057928208261728">
        <ele>30.890000000000001</ele>
        <time>2022-08-28T08:40:57Z</time>
      </trkpt>
      <trkpt lat="51.043860968202353" lon="5.057161599397659">
        <ele>28.32</ele>
        <time>2022-08-28T08:42:02Z</time>
      </trkpt>
      <trkpt lat="51.043658629059792" lon="5.056946519762278">
        <ele>27.390000000000001</ele>
        <time>2022-08-28T08:42:15Z</time>
      </trkpt>
      <trkpt lat="51.043443214148283" lon="5.056675197556615">
        <ele>27.309999999999999</ele>
        <time>2022-08-28T08:42:25Z</time>
      </trkpt>
      <trkpt lat="51.043240539729595" lon="5.056437654420734">
        <ele>27.219999999999999</ele>
        <time>2022-08-28T08:42:34Z</time>
      </trkpt>
      <trkpt lat="51.042675180360675" lon="5.055844215676189">
        <ele>26.960000000000001</ele>
        <time>2022-08-28T08:43:02Z</time>
      </trkpt>
      <trkpt lat="51.042540483176708" lon="5.055604074150324">
        <ele>25.129999999999999</ele>
        <time>2022-08-28T08:43:20Z</time>
      </trkpt>
      <trkpt lat="51.042385753244162" lon="5.055484380573034">
        <ele>24.199999999999999</ele>
        <time>2022-08-28T08:43:34Z</time>
      </trkpt>
      <trkpt lat="51.042200345546007" lon="5.055373152717948">
        <ele>22.420000000000002</ele>
        <time>2022-08-28T08:43:51Z</time>
      </trkpt>
      <trkpt lat="51.042043855413795" lon="5.055312383919954">
        <ele>21.52</ele>
        <time>2022-08-28T08:44:03Z</time>
      </trkpt>
      <trkpt lat="51.042026421055198" lon="5.055309366434813">
        <ele>21.5</ele>
        <time>2022-08-28T08:44:05Z</time>
      </trkpt>
      <trkpt lat="51.041774293407798" lon="5.055191516876221">
        <ele>20.530000000000001</ele>
        <time>2022-08-28T08:44:24Z</time>
      </trkpt>
      <trkpt lat="51.041702795773745" lon="5.055135358124971">
        <ele>20.460000000000001</ele>
        <time>2022-08-28T08:44:30Z</time>
      </trkpt>
      <trkpt lat="51.041509425267577" lon="5.055030919611454">
        <ele>19.579999999999998</ele>
        <time>2022-08-28T08:44:40Z</time>
      </trkpt>
      <trkpt lat="51.041046408936381" lon="5.054828161373735">
        <ele>19.379999999999999</ele>
        <time>2022-08-28T08:44:56Z</time>
      </trkpt>
      <trkpt lat="51.040965523570776" lon="5.05501801148057">
        <ele>19.210000000000001</ele>
        <time>2022-08-28T08:45:12Z</time>
      </trkpt>
      <trkpt lat="51.040275692939758" lon="5.056165745481849">
        <ele>17.690000000000001</ele>
        <time>2022-08-28T08:47:04Z</time>
      </trkpt>
      <trkpt lat="51.040849685668945" lon="5.059000672772527">
        <ele>12.630000000000001</ele>
        <time>2022-08-28T08:48:50Z</time>
      </trkpt>
      <trkpt lat="51.04054450057447" lon="5.061567379161716">
        <ele>9.34</ele>
        <time>2022-08-28T08:50:41Z</time>
      </trkpt>
      <trkpt lat="51.040382729843259" lon="5.061429245397449">
        <ele>8.869999999999999</ele>
        <time>2022-08-28T08:51:00Z</time>
      </trkpt>
      <trkpt lat="51.040107887238264" lon="5.061308462172747">
        <ele>7.39</ele>
        <time>2022-08-28T08:51:26Z</time>
      </trkpt>
      <trkpt lat="51.039992636069655" lon="5.061499318107963">
        <ele>7.09</ele>
        <time>2022-08-28T08:51:40Z</time>
      </trkpt>
      <trkpt lat="51.039895322173834" lon="5.061800396069884">
        <ele>6.71</ele>
        <time>2022-08-28T08:52:01Z</time>
      </trkpt>
      <trkpt lat="51.039684265851974" lon="5.06219057366252">
        <ele>6.37</ele>
        <time>2022-08-28T08:52:20Z</time>
      </trkpt>
      <trkpt lat="51.039517801254988" lon="5.062504392117262">
        <ele>6.09</ele>
        <time>2022-08-28T08:52:40Z</time>
      </trkpt>
      <trkpt lat="51.039331387728453" lon="5.062609668821096">
        <ele>5.89</ele>
        <time>2022-08-28T08:52:53Z</time>
      </trkpt>
      <trkpt lat="51.039164252579212" lon="5.062527693808079">
        <ele>5.66</ele>
        <time>2022-08-28T08:53:08Z</time>
      </trkpt>
      <trkpt lat="51.03878203779459" lon="5.062631545588374">
        <ele>8.32</ele>
        <time>2022-08-28T08:53:39Z</time>
      </trkpt>
      <trkpt lat="51.038342071697116" lon="5.062726344913244">
        <ele>9.24</ele>
        <time>2022-08-28T08:54:11Z</time>
      </trkpt>
      <trkpt lat="51.038113413378596" lon="5.062728356570005">
        <ele>10.710000000000001</ele>
        <time>2022-08-28T08:54:27Z</time>
      </trkpt>
      <trkpt lat="51.037768917158246" lon="5.06273053586483">
        <ele>12.31</ele>
        <time>2022-08-28T08:54:38Z</time>
      </trkpt>
      <trkpt lat="51.037868913263083" lon="5.063266474753618">
        <ele>11.710000000000001</ele>
        <time>2022-08-28T08:55:10Z</time>
      </trkpt>
      <trkpt lat="51.037921803072095" lon="5.063640642911196">
        <ele>11.460000000000001</ele>
        <time>2022-08-28T08:55:27Z</time>
      </trkpt>
      <trkpt lat="51.037951055914164" lon="5.063736196607351">
        <ele>11.359999999999999</ele>
        <time>2022-08-28T08:55:34Z</time>
      </trkpt>
      <trkpt lat="51.038074186071754" lon="5.064641358330846">
        <ele>10.92</ele>
        <time>2022-08-28T08:56:16Z</time>
      </trkpt>
      <trkpt lat="51.038073264062405" lon="5.064686872065067">
        <ele>10.91</ele>
        <time>2022-08-28T08:56:17Z</time>
      </trkpt>
      <trkpt lat="51.038074605166912" lon="5.064723417162895">
        <ele>10.9</ele>
        <time>2022-08-28T08:56:18Z</time>
      </trkpt>
      <trkpt lat="51.038080304861069" lon="5.06474512629211">
        <ele>10.890000000000001</ele>
        <time>2022-08-28T08:56:19Z</time>
      </trkpt>
      <trkpt lat="51.038086758926511" lon="5.064767925068736">
        <ele>10.880000000000001</ele>
        <time>2022-08-28T08:56:20Z</time>
      </trkpt>
      <trkpt lat="51.038153059780598" lon="5.065245945006609">
        <ele>10.77</ele>
        <time>2022-08-28T08:56:32Z</time>
      </trkpt>
      <trkpt lat="51.038327822461724" lon="5.066634826362133">
        <ele>10.32</ele>
        <time>2022-08-28T08:57:10Z</time>
      </trkpt>
      <trkpt lat="51.038327906280756" lon="5.066652847453952">
        <ele>10.32</ele>
        <time>2022-08-28T08:57:11Z</time>
      </trkpt>
      <trkpt lat="51.0383290797472" lon="5.06667179055512">
        <ele>10.31</ele>
        <time>2022-08-28T08:57:12Z</time>
      </trkpt>
      <trkpt lat="51.038345927372575" lon="5.06685359403491">
        <ele>10.23</ele>
        <time>2022-08-28T08:57:23Z</time>
      </trkpt>
      <trkpt lat="51.038398398086429" lon="5.067049395292997">
        <ele>7.89</ele>
        <time>2022-08-28T08:57:34Z</time>
      </trkpt>
      <trkpt lat="51.038427986204624" lon="5.067339576780796">
        <ele>7.88</ele>
        <time>2022-08-28T08:57:45Z</time>
      </trkpt>
      <trkpt lat="51.038429578766227" lon="5.067387018352747">
        <ele>7.88</ele>
        <time>2022-08-28T08:57:46Z</time>
      </trkpt>
      <trkpt lat="51.038501998409629" lon="5.067896973341703">
        <ele>7.9</ele>
        <time>2022-08-28T08:58:01Z</time>
      </trkpt>
      <trkpt lat="51.038520354777575" lon="5.068498374894261">
        <ele>7.84</ele>
        <time>2022-08-28T08:58:21Z</time>
      </trkpt>
      <trkpt lat="51.038509625941515" lon="5.068547744303942">
        <ele>7.83</ele>
        <time>2022-08-28T08:58:23Z</time>
      </trkpt>
      <trkpt lat="51.038503842428327" lon="5.068570040166378">
        <ele>7.83</ele>
        <time>2022-08-28T08:58:24Z</time>
      </trkpt>
      <trkpt lat="51.038359170779586" lon="5.069013526663184">
        <ele>10.199999999999999</ele>
        <time>2022-08-28T08:58:38Z</time>
      </trkpt>
      <trkpt lat="51.038174349814653" lon="5.071390466764569">
        <ele>11.66</ele>
        <time>2022-08-28T09:00:37Z</time>
      </trkpt>
      <trkpt lat="51.038165129721165" lon="5.071890195831657">
        <ele>12.31</ele>
        <time>2022-08-28T09:00:53Z</time>
      </trkpt>
      <trkpt lat="51.037939991801977" lon="5.074510462582111">
        <ele>11.77</ele>
        <time>2022-08-28T09:03:54Z</time>
      </trkpt>
      <trkpt lat="51.037905039265752" lon="5.074643148109317">
        <ele>12.619999999999999</ele>
        <time>2022-08-28T09:04:15Z</time>
      </trkpt>
      <trkpt lat="51.037861118093133" lon="5.074850097298622">
        <ele>12.630000000000001</ele>
        <time>2022-08-28T09:04:27Z</time>
      </trkpt>
      <trkpt lat="51.037779226899147" lon="5.075267935171723">
        <ele>12.67</ele>
        <time>2022-08-28T09:04:44Z</time>
      </trkpt>
      <trkpt lat="51.037770677357912" lon="5.075297690927982">
        <ele>12.67</ele>
        <time>2022-08-28T09:04:45Z</time>
      </trkpt>
      <trkpt lat="51.037769084796309" lon="5.075318813323975">
        <ele>12.68</ele>
        <time>2022-08-28T09:04:46Z</time>
      </trkpt>
      <trkpt lat="51.037766151130199" lon="5.075343539938331">
        <ele>12.68</ele>
        <time>2022-08-28T09:04:47Z</time>
      </trkpt>
      <trkpt lat="51.037766151130199" lon="5.075366254895926">
        <ele>12.67</ele>
        <time>2022-08-28T09:04:48Z</time>
      </trkpt>
      <trkpt lat="51.037766737863421" lon="5.075389975681901">
        <ele>12.69</ele>
        <time>2022-08-28T09:04:49Z</time>
      </trkpt>
      <trkpt lat="51.037767743691802" lon="5.075412187725306">
        <ele>12.69</ele>
        <time>2022-08-28T09:04:50Z</time>
      </trkpt>
      <trkpt lat="51.037778221070766" lon="5.075706308707595">
        <ele>12.720000000000001</ele>
        <time>2022-08-28T09:05:03Z</time>
      </trkpt>
      <trkpt lat="51.037835972383618" lon="5.075717121362686">
        <ele>12.869999999999999</ele>
        <time>2022-08-28T09:05:22Z</time>
      </trkpt>
      <trkpt lat="51.038006795570254" lon="5.075711254030466">
        <ele>13.029999999999999</ele>
        <time>2022-08-28T09:05:39Z</time>
      </trkpt>
      <trkpt lat="51.038049375638366" lon="5.075702620670199">
        <ele>10.800000000000001</ele>
        <time>2022-08-28T09:05:44Z</time>
      </trkpt>
      <trkpt lat="51.038301251828671" lon="5.075631961226463">
        <ele>10.17</ele>
        <time>2022-08-28T09:06:04Z</time>
      </trkpt>
      <trkpt lat="51.038520019501448" lon="5.075536072254181">
        <ele>8.74</ele>
        <time>2022-08-28T09:06:21Z</time>
      </trkpt>
      <trkpt lat="51.038771476596594" lon="5.075633637607098">
        <ele>8.85</ele>
        <time>2022-08-28T09:06:38Z</time>
      </trkpt>
      <trkpt lat="51.038868455216289" lon="5.076078046113253">
        <ele>8.08</ele>
        <time>2022-08-28T09:07:00Z</time>
      </trkpt>
      <trkpt lat="51.038940539583564" lon="5.076543828472495">
        <ele>7.38</ele>
        <time>2022-08-28T09:07:20Z</time>
      </trkpt>
      <trkpt lat="51.038986053317785" lon="5.076637454330921">
        <ele>6.53</ele>
        <time>2022-08-28T09:07:33Z</time>
      </trkpt>
      <trkpt lat="51.039201384410262" lon="5.076706185936928">
        <ele>5.75</ele>
        <time>2022-08-28T09:08:00Z</time>
      </trkpt>
      <trkpt lat="51.039445884525776" lon="5.076719596982002">
        <ele>5</ele>
        <time>2022-08-28T09:08:18Z</time>
      </trkpt>
      <trkpt lat="51.039790883660316" lon="5.076714400202036">
        <ele>4.15</ele>
        <time>2022-08-28T09:08:29Z</time>
      </trkpt>
      <trkpt lat="51.04007788002491" lon="5.076762931421399">
        <ele>3.38</ele>
        <time>2022-08-28T09:08:40Z</time>
      </trkpt>
      <trkpt lat="51.04041256941855" lon="5.076828142628074">
        <ele>3.4</ele>
        <time>2022-08-28T09:08:55Z</time>
      </trkpt>
      <trkpt lat="51.04099603369832" lon="5.076838033273816">
        <ele>3.77</ele>
        <time>2022-08-28T09:10:05Z</time>
      </trkpt>
      <trkpt lat="51.041296608746052" lon="5.076767541468144">
        <ele>3.85</ele>
        <time>2022-08-28T09:10:17Z</time>
      </trkpt>
      <trkpt lat="51.04132292792201" lon="5.076754046604037">
        <ele>3.87</ele>
        <time>2022-08-28T09:10:18Z</time>
      </trkpt>
      <trkpt lat="51.041356790810823" lon="5.076754046604037">
        <ele>3.88</ele>
        <time>2022-08-28T09:10:19Z</time>
      </trkpt>
      <trkpt lat="51.041384870186448" lon="5.076751951128244">
        <ele>3.88</ele>
        <time>2022-08-28T09:10:20Z</time>
      </trkpt>
      <trkpt lat="51.041403729468584" lon="5.07674491032958">
        <ele>3.89</ele>
        <time>2022-08-28T09:10:21Z</time>
      </trkpt>
      <trkpt lat="51.041799774393439" lon="5.076690092682838">
        <ele>3.91</ele>
        <time>2022-08-28T09:10:28Z</time>
      </trkpt>
      <trkpt lat="51.04196204803884" lon="5.077344719320536">
        <ele>2.15</ele>
        <time>2022-08-28T09:10:50Z</time>
      </trkpt>
      <trkpt lat="51.041986271739006" lon="5.077400794252753">
        <ele>2.17</ele>
        <time>2022-08-28T09:10:52Z</time>
      </trkpt>
      <trkpt lat="51.042000520974398" lon="5.077398950234056">
        <ele>2.18</ele>
        <time>2022-08-28T09:10:53Z</time>
      </trkpt>
      <trkpt lat="51.042024744674563" lon="5.077778063714504">
        <ele>2.26</ele>
        <time>2022-08-28T09:11:06Z</time>
      </trkpt>
      <trkpt lat="51.042075119912624" lon="5.078001441434026">
        <ele>2.26</ele>
        <time>2022-08-28T09:11:14Z</time>
      </trkpt>
      <trkpt lat="51.042263293638825" lon="5.078040668740869">
        <ele>2.26</ele>
        <time>2022-08-28T09:11:32Z</time>
      </trkpt>
      <trkpt lat="51.042510475963354" lon="5.077998843044043">
        <ele>2.24</ele>
        <time>2022-08-28T09:11:53Z</time>
      </trkpt>
      <trkpt lat="51.042790180072188" lon="5.078000519424677">
        <ele>2.21</ele>
        <time>2022-08-28T09:12:10Z</time>
      </trkpt>
      <trkpt lat="51.042879112064838" lon="5.07807394489646">
        <ele>1.43</ele>
        <time>2022-08-28T09:12:14Z</time>
      </trkpt>
      <trkpt lat="51.042938372120261" lon="5.078449286520481">
        <ele>0.6</ele>
        <time>2022-08-28T09:12:33Z</time>
      </trkpt>
      <trkpt lat="51.042960500344634" lon="5.078580295667052">
        <ele>-0.27</ele>
        <time>2022-08-28T09:12:36Z</time>
      </trkpt>
      <trkpt lat="51.043057311326265" lon="5.07951395586133">
        <ele>-1</ele>
        <time>2022-08-28T09:13:15Z</time>
      </trkpt>
      <trkpt lat="51.043097376823425" lon="5.079902792349458">
        <ele>-1</ele>
        <time>2022-08-28T09:13:16Z</time>
      </trkpt>
      <trkpt lat="51.042924877256155" lon="5.079885525628924">
        <ele>-1.03</ele>
        <time>2022-08-28T09:13:30Z</time>
      </trkpt>
      <trkpt lat="51.042725304141641" lon="5.079964566975832">
        <ele>-1.19</ele>
        <time>2022-08-28T09:13:50Z</time>
      </trkpt>
      <trkpt lat="51.042478457093239" lon="5.08004754781723">
        <ele>-1.39</ele>
        <time>2022-08-28T09:14:09Z</time>
      </trkpt>
      <trkpt lat="51.042349711060524" lon="5.080015445128083">
        <ele>-1.53</ele>
        <time>2022-08-28T09:14:21Z</time>
      </trkpt>
      <trkpt lat="51.042295815423131" lon="5.080037154257298">
        <ele>-1.6</ele>
        <time>2022-08-28T09:14:28Z</time>
      </trkpt>
      <trkpt lat="51.042111665010452" lon="5.079943276941776">
        <ele>-1.66</ele>
        <time>2022-08-28T09:14:44Z</time>
      </trkpt>
      <trkpt lat="51.042066738009453" lon="5.079372804611921">
        <ele>-1.79</ele>
        <time>2022-08-28T09:15:02Z</time>
      </trkpt>
      <trkpt lat="51.041783764958382" lon="5.07944505661726">
        <ele>-1.87</ele>
        <time>2022-08-28T09:15:14Z</time>
      </trkpt>
      <trkpt lat="51.040738457813859" lon="5.079612191766501">
        <ele>-0.19</ele>
        <time>2022-08-28T09:17:41Z</time>
      </trkpt>
      <trkpt lat="51.04058900848031" lon="5.079546142369509">
        <ele>-0.06</ele>
        <time>2022-08-28T09:17:59Z</time>
      </trkpt>
      <trkpt lat="51.040472751483321" lon="5.07929015904665">
        <ele>0</ele>
        <time>2022-08-28T09:18:14Z</time>
      </trkpt>
      <trkpt lat="51.040429584681988" lon="5.078522125259042">
        <ele>1.73</ele>
        <time>2022-08-28T09:19:06Z</time>
      </trkpt>
      <trkpt lat="51.040386501699686" lon="5.078151058405638">
        <ele>1.79</ele>
        <time>2022-08-28T09:19:19Z</time>
      </trkpt>
      <trkpt lat="51.040475433692336" lon="5.077624591067433">
        <ele>2.65</ele>
        <time>2022-08-28T09:19:37Z</time>
      </trkpt>
      <trkpt lat="51.040475433692336" lon="5.07702486589551">
        <ele>3.5</ele>
        <time>2022-08-28T09:19:51Z</time>
      </trkpt>
      <trkpt lat="51.040448443964124" lon="5.076985973864794">
        <ele>3.49</ele>
        <time>2022-08-28T09:19:54Z</time>
      </trkpt>
      <trkpt lat="51.040270496159792" lon="5.076925624161959">
        <ele>4.22</ele>
        <time>2022-08-28T09:20:04Z</time>
      </trkpt>
      <trkpt lat="51.040070168673992" lon="5.076861334964633">
        <ele>4.18</ele>
        <time>2022-08-28T09:20:10Z</time>
      </trkpt>
      <trkpt lat="51.039971178397536" lon="5.076869884505868">
        <ele>4.12</ele>
        <time>2022-08-28T09:20:14Z</time>
      </trkpt>
      <trkpt lat="51.03986581787467" lon="5.076838284730911">
        <ele>4.83</ele>
        <time>2022-08-28T09:20:19Z</time>
      </trkpt>
      <trkpt lat="51.039632549509406" lon="5.076848426833749">
        <ele>5.48</ele>
        <time>2022-08-28T09:20:28Z</time>
      </trkpt>
      <trkpt lat="51.039564739912748" lon="5.076841386035085">
        <ele>5.46</ele>
        <time>2022-08-28T09:20:29Z</time>
      </trkpt>
      <trkpt lat="51.039539342746139" lon="5.076829232275486">
        <ele>5.44</ele>
        <time>2022-08-28T09:20:30Z</time>
      </trkpt>
      <trkpt lat="51.039521740749478" lon="5.076818084344268">
        <ele>6.18</ele>
        <time>2022-08-28T09:20:31Z</time>
      </trkpt>
      <trkpt lat="51.039474382996559" lon="5.076827136799693">
        <ele>6.16</ele>
        <time>2022-08-28T09:20:32Z</time>
      </trkpt>
      <trkpt lat="51.039454266428947" lon="5.07682797499001">
        <ele>6.15</ele>
        <time>2022-08-28T09:20:33Z</time>
      </trkpt>
      <trkpt lat="51.039438592270017" lon="5.076813390478492">
        <ele>6.1</ele>
        <time>2022-08-28T09:20:35Z</time>
      </trkpt>
      <trkpt lat="51.039041206240654" lon="5.076813977211714">
        <ele>6.37</ele>
        <time>2022-08-28T09:21:02Z</time>
      </trkpt>
      <trkpt lat="51.038816571235657" lon="5.076792351901531">
        <ele>7.47</ele>
        <time>2022-08-28T09:21:41Z</time>
      </trkpt>
      <trkpt lat="51.038794191554189" lon="5.076099168509245">
        <ele>7.21</ele>
        <time>2022-08-28T09:22:07Z</time>
      </trkpt>
      <trkpt lat="51.038712803274393" lon="5.075764898210764">
        <ele>7.84</ele>
        <time>2022-08-28T09:22:22Z</time>
      </trkpt>
      <trkpt lat="51.038593864068389" lon="5.075759282335639">
        <ele>7.72</ele>
        <time>2022-08-28T09:22:32Z</time>
      </trkpt>
      <trkpt lat="51.038571735844016" lon="5.075751235708594">
        <ele>8.49</ele>
        <time>2022-08-28T09:22:35Z</time>
      </trkpt>
      <trkpt lat="51.03849277831614" lon="5.075701447203755">
        <ele>8.369999999999999</ele>
        <time>2022-08-28T09:22:45Z</time>
      </trkpt>
      <trkpt lat="51.038478948175907" lon="5.075700609013438">
        <ele>8.359999999999999</ele>
        <time>2022-08-28T09:22:47Z</time>
      </trkpt>
      <trkpt lat="51.03793865069747" lon="5.075841257348657">
        <ele>10.02</ele>
        <time>2022-08-28T09:26:43Z</time>
      </trkpt>
      <trkpt lat="51.037909314036369" lon="5.075824744999409">
        <ele>10.859999999999999</ele>
        <time>2022-08-28T09:26:55Z</time>
      </trkpt>
      <trkpt lat="51.03781946003437" lon="5.075843101367354">
        <ele>10.76</ele>
        <time>2022-08-28T09:27:09Z</time>
      </trkpt>
      <trkpt lat="51.037805294618011" lon="5.075837820768356">
        <ele>10.75</ele>
        <time>2022-08-28T09:27:10Z</time>
      </trkpt>
      <trkpt lat="51.037779645994306" lon="5.075828433036804">
        <ele>10.74</ele>
        <time>2022-08-28T09:27:12Z</time>
      </trkpt>
      <trkpt lat="51.037588119506836" lon="5.075648976489902">
        <ele>10.699999999999999</ele>
        <time>2022-08-28T09:27:25Z</time>
      </trkpt>
      <trkpt lat="51.037509413436055" lon="5.075540849938989">
        <ele>11.49</ele>
        <time>2022-08-28T09:27:39Z</time>
      </trkpt>
      <trkpt lat="51.037466246634722" lon="5.075280256569386">
        <ele>12.369999999999999</ele>
        <time>2022-08-28T09:27:53Z</time>
      </trkpt>
      <trkpt lat="51.037461301311851" lon="5.07519400678575">
        <ele>12.41</ele>
        <time>2022-08-28T09:27:57Z</time>
      </trkpt>
      <trkpt lat="51.037449315190315" lon="5.074968533590436">
        <ele>12.49</ele>
        <time>2022-08-28T09:28:08Z</time>
      </trkpt>
      <trkpt lat="51.037443783134222" lon="5.074773486703634">
        <ele>13.380000000000001</ele>
        <time>2022-08-28T09:28:19Z</time>
      </trkpt>
      <trkpt lat="51.037455517798662" lon="5.074547845870256">
        <ele>13.460000000000001</ele>
        <time>2022-08-28T09:28:32Z</time>
      </trkpt>
      <trkpt lat="51.037404723465443" lon="5.073321992531419">
        <ele>14.289999999999999</ele>
        <time>2022-08-28T09:29:15Z</time>
      </trkpt>
      <trkpt lat="51.037356276065111" lon="5.072695193812251">
        <ele>15.119999999999999</ele>
        <time>2022-08-28T09:29:26Z</time>
      </trkpt>
      <trkpt lat="51.037264578044415" lon="5.071905367076397">
        <ele>15.91</ele>
        <time>2022-08-28T09:29:37Z</time>
      </trkpt>
      <trkpt lat="51.037201294675469" lon="5.070966510102153">
        <ele>17.300000000000001</ele>
        <time>2022-08-28T09:30:42Z</time>
      </trkpt>
      <trkpt lat="51.03712216950953" lon="5.070823514834046">
        <ele>17.210000000000001</ele>
        <time>2022-08-28T09:30:59Z</time>
      </trkpt>
      <trkpt lat="51.037048995494843" lon="5.070415399968624">
        <ele>17.100000000000001</ele>
        <time>2022-08-28T09:31:19Z</time>
      </trkpt>
      <trkpt lat="51.036790246143937" lon="5.069764293730259">
        <ele>14.220000000000001</ele>
        <time>2022-08-28T09:33:08Z</time>
      </trkpt>
      <trkpt lat="51.036601820960641" lon="5.069479225203395">
        <ele>13.15</ele>
        <time>2022-08-28T09:34:05Z</time>
      </trkpt>
      <trkpt lat="51.03656368330121" lon="5.069396160542965">
        <ele>12.380000000000001</ele>
        <time>2022-08-28T09:34:11Z</time>
      </trkpt>
      <trkpt lat="51.03644197806716" lon="5.069335643202066">
        <ele>8.75</ele>
        <time>2022-08-28T09:34:22Z</time>
      </trkpt>
      <trkpt lat="51.036185994744301" lon="5.06929230876267">
        <ele>6.15</ele>
        <time>2022-08-28T09:34:39Z</time>
      </trkpt>
      <trkpt lat="51.036109635606408" lon="5.069465562701225">
        <ele>2.55</ele>
        <time>2022-08-28T09:34:53Z</time>
      </trkpt>
      <trkpt lat="51.036055069416761" lon="5.06962800398469">
        <ele>-0.76</ele>
        <time>2022-08-28T09:35:07Z</time>
      </trkpt>
      <trkpt lat="51.035996312275529" lon="5.069629428908229">
        <ele>-1.56</ele>
        <time>2022-08-28T09:35:12Z</time>
      </trkpt>
      <trkpt lat="51.035979297012091" lon="5.069638649001718">
        <ele>-1.54</ele>
        <time>2022-08-28T09:35:13Z</time>
      </trkpt>
      <trkpt lat="51.035698419436812" lon="5.069599002599716">
        <ele>-2.36</ele>
        <time>2022-08-28T09:35:33Z</time>
      </trkpt>
      <trkpt lat="51.035625664517283" lon="5.069495402276516">
        <ele>-3.16</ele>
        <time>2022-08-28T09:35:49Z</time>
      </trkpt>
      <trkpt lat="51.035552909597754" lon="5.068986285477877">
        <ele>-3.23</ele>
        <time>2022-08-28T09:36:09Z</time>
      </trkpt>
      <trkpt lat="51.0354935657233" lon="5.068641034886241">
        <ele>-4.08</ele>
        <time>2022-08-28T09:36:27Z</time>
      </trkpt>
      <trkpt lat="51.035431791096926" lon="5.068214312195778">
        <ele>-4.25</ele>
        <time>2022-08-28T09:36:44Z</time>
      </trkpt>
      <trkpt lat="51.035332130268216" lon="5.067887166514993">
        <ele>-5.09</ele>
        <time>2022-08-28T09:36:59Z</time>
      </trkpt>
      <trkpt lat="51.035325257107615" lon="5.067719947546721">
        <ele>-5.17</ele>
        <time>2022-08-28T09:37:12Z</time>
      </trkpt>
      <trkpt lat="51.035283179953694" lon="5.067524313926697">
        <ele>-6.56</ele>
        <time>2022-08-28T09:37:18Z</time>
      </trkpt>
      <trkpt lat="51.035271445289254" lon="5.067300852388144">
        <ele>-6.72</ele>
        <time>2022-08-28T09:37:36Z</time>
      </trkpt>
      <trkpt lat="51.035268427804112" lon="5.067276880145073">
        <ele>-6.75</ele>
        <time>2022-08-28T09:37:38Z</time>
      </trkpt>
      <trkpt lat="51.035244204103947" lon="5.067120054736733">
        <ele>-4.3</ele>
        <time>2022-08-28T09:37:46Z</time>
      </trkpt>
      <trkpt lat="51.035233978182077" lon="5.0670734513551">
        <ele>-4.36</ele>
        <time>2022-08-28T09:37:50Z</time>
      </trkpt>
      <trkpt lat="51.03523850440979" lon="5.066938418895006">
        <ele>-4.67</ele>
        <time>2022-08-28T09:38:11Z</time>
      </trkpt>
      <trkpt lat="51.035244120284915" lon="5.066896509379149">
        <ele>-4.74</ele>
        <time>2022-08-28T09:38:15Z</time>
      </trkpt>
      <trkpt lat="51.035193325951695" lon="5.066704228520393">
        <ele>-4.96</ele>
        <time>2022-08-28T09:38:33Z</time>
      </trkpt>
      <trkpt lat="51.035140352323651" lon="5.066534830257297">
        <ele>-4.97</ele>
        <time>2022-08-28T09:38:34Z</time>
      </trkpt>
      <trkpt lat="51.035428773611784" lon="5.064933886751533">
        <ele>-5.36</ele>
        <time>2022-08-28T09:38:58Z</time>
      </trkpt>
      <trkpt lat="51.036037802696228" lon="5.062891636043787">
        <ele>-2.43</ele>
        <time>2022-08-28T09:41:11Z</time>
      </trkpt>
      <trkpt lat="51.036162944510579" lon="5.062354439869523">
        <ele>-2.99</ele>
        <time>2022-08-28T09:41:38Z</time>
      </trkpt>
      <trkpt lat="51.036157496273518" lon="5.062300711870194">
        <ele>-5.38</ele>
        <time>2022-08-28T09:41:43Z</time>
      </trkpt>
      <trkpt lat="51.036119610071182" lon="5.062057301402092">
        <ele>-5.72</ele>
        <time>2022-08-28T09:41:58Z</time>
      </trkpt>
      <trkpt lat="51.035983907058835" lon="5.060903616249561">
        <ele>-6.9</ele>
        <time>2022-08-28T09:42:17Z</time>
      </trkpt>
      <trkpt lat="51.036069234833121" lon="5.059987055137754">
        <ele>-10.51</ele>
        <time>2022-08-28T09:43:20Z</time>
      </trkpt>
      <trkpt lat="51.036154562607408" lon="5.059561086818576">
        <ele>-11.49</ele>
        <time>2022-08-28T09:43:26Z</time>
      </trkpt>
      <trkpt lat="51.036365702748299" lon="5.059243328869343">
        <ele>-11.699999999999999</ele>
        <time>2022-08-28T09:43:46Z</time>
      </trkpt>
      <trkpt lat="51.036633420735598" lon="5.058870417997241">
        <ele>-11.859999999999999</ele>
        <time>2022-08-28T09:44:01Z</time>
      </trkpt>
      <trkpt lat="51.03669804520905" lon="5.058736642822623">
        <ele>-13.81</ele>
        <time>2022-08-28T09:45:08Z</time>
      </trkpt>
      <trkpt lat="51.036765687167645" lon="5.05809978581965">
        <ele>-13.890000000000001</ele>
        <time>2022-08-28T09:46:09Z</time>
      </trkpt>
      <trkpt lat="51.036763926967978" lon="5.058099282905459">
        <ele>-13.9</ele>
        <time>2022-08-28T09:46:11Z</time>
      </trkpt>
      <trkpt lat="51.036891164258122" lon="5.057149277999997">
        <ele>-15.630000000000001</ele>
        <time>2022-08-28T09:47:15Z</time>
      </trkpt>
      <trkpt lat="51.037016976624727" lon="5.056831603869796">
        <ele>-15.68</ele>
        <time>2022-08-28T09:47:27Z</time>
      </trkpt>
      <trkpt lat="51.037342613562942" lon="5.057240640744567">
        <ele>-15.74</ele>
        <time>2022-08-28T09:47:41Z</time>
      </trkpt>
      <trkpt lat="51.037558196112514" lon="5.057470975443721">
        <ele>-15.83</ele>
        <time>2022-08-28T09:47:59Z</time>
      </trkpt>
      <trkpt lat="51.037983996793628" lon="5.057993084192276">
        <ele>-16.280000000000001</ele>
        <time>2022-08-28T09:48:39Z</time>
      </trkpt>
      <trkpt lat="51.038193041458726" lon="5.058234734460712">
        <ele>-16.41</ele>
        <time>2022-08-28T09:48:50Z</time>
      </trkpt>
      <trkpt lat="51.03841507807374" lon="5.058475295081735">
        <ele>-16.609999999999999</ele>
        <time>2022-08-28T09:49:08Z</time>
      </trkpt>
      <trkpt lat="51.038568383082747" lon="5.058690793812275">
        <ele>-16.73</ele>
        <time>2022-08-28T09:49:21Z</time>
      </trkpt>
      <trkpt lat="51.038676677271724" lon="5.058852229267359">
        <ele>-16.870000000000001</ele>
        <time>2022-08-28T09:49:30Z</time>
      </trkpt>
      <trkpt lat="51.038831239566207" lon="5.059198820963502">
        <ele>-17.059999999999999</ele>
        <time>2022-08-28T09:49:50Z</time>
      </trkpt>
      <trkpt lat="51.038852781057358" lon="5.059123719111085">
        <ele>-15.609999999999999</ele>
        <time>2022-08-28T09:52:08Z</time>
      </trkpt>
      <trkpt lat="51.038922518491745" lon="5.05895247682929">
        <ele>-15.6</ele>
        <time>2022-08-28T09:52:14Z</time>
      </trkpt>
      <trkpt lat="51.038938360288739" lon="5.058846613392234">
        <ele>-15.56</ele>
        <time>2022-08-28T09:52:21Z</time>
      </trkpt>
      <trkpt lat="51.038941461592913" lon="5.058756088837981">
        <ele>-15.529999999999999</ele>
        <time>2022-08-28T09:52:26Z</time>
      </trkpt>
      <trkpt lat="51.038962583988905" lon="5.058713173493743">
        <ele>-15.52</ele>
        <time>2022-08-28T09:52:32Z</time>
      </trkpt>
      <trkpt lat="51.039153942838311" lon="5.05852248519659">
        <ele>-14.57</ele>
        <time>2022-08-28T09:52:47Z</time>
      </trkpt>
      <trkpt lat="51.03929853066802" lon="5.058432798832655">
        <ele>-13.76</ele>
        <time>2022-08-28T09:52:58Z</time>
      </trkpt>
      <trkpt lat="51.039363238960505" lon="5.058400947600603">
        <ele>-13.73</ele>
        <time>2022-08-28T09:53:04Z</time>
      </trkpt>
      <trkpt lat="51.039445381611586" lon="5.058322157710791">
        <ele>-13.69</ele>
        <time>2022-08-28T09:53:12Z</time>
      </trkpt>
      <trkpt lat="51.039534397423267" lon="5.058269854635">
        <ele>-12.91</ele>
        <time>2022-08-28T09:53:24Z</time>
      </trkpt>
      <trkpt lat="51.039581755176187" lon="5.058259880170226">
        <ele>-12.859999999999999</ele>
        <time>2022-08-28T09:53:30Z</time>
      </trkpt>
      <trkpt lat="51.039591562002897" lon="5.058252504095435">
        <ele>-12.859999999999999</ele>
        <time>2022-08-28T09:53:31Z</time>
      </trkpt>
      <trkpt lat="51.040097242221236" lon="5.057977410033345">
        <ele>-11.18</ele>
        <time>2022-08-28T09:54:05Z</time>
      </trkpt>
      <trkpt lat="51.039869589731097" lon="5.057338541373611">
        <ele>-11.18</ele>
        <time>2022-08-28T09:54:57Z</time>
      </trkpt>
      <trkpt lat="51.039824495092034" lon="5.056655500084162">
        <ele>-11.26</ele>
        <time>2022-08-28T09:55:08Z</time>
      </trkpt>
      <trkpt lat="51.039745034649968" lon="5.056289713829756">
        <ele>-11.369999999999999</ele>
        <time>2022-08-28T09:55:23Z</time>
      </trkpt>
      <trkpt lat="51.039588628336787" lon="5.055748159065843">
        <ele>-11.550000000000001</ele>
        <time>2022-08-28T09:55:45Z</time>
      </trkpt>
      <trkpt lat="51.039554681628942" lon="5.055604157969356">
        <ele>-11.619999999999999</ele>
        <time>2022-08-28T09:55:51Z</time>
      </trkpt>
      <trkpt lat="51.039526602253318" lon="5.055477423593402">
        <ele>-11.75</ele>
        <time>2022-08-28T09:56:08Z</time>
      </trkpt>
      <trkpt lat="51.039389725774527" lon="5.055392682552338">
        <ele>-11.98</ele>
        <time>2022-08-28T09:56:54Z</time>
      </trkpt>
      <trkpt lat="51.039340943098068" lon="5.055186152458191">
        <ele>-11.99</ele>
        <time>2022-08-28T09:57:07Z</time>
      </trkpt>
      <trkpt lat="51.039282185956836" lon="5.054554156959057">
        <ele>-11.949999999999999</ele>
        <time>2022-08-28T09:57:25Z</time>
      </trkpt>
      <trkpt lat="51.039275145158172" lon="5.05395082756877">
        <ele>-14.23</ele>
        <time>2022-08-28T09:57:42Z</time>
      </trkpt>
      <trkpt lat="51.039333650842309" lon="5.053816800937057">
        <ele>-14.210000000000001</ele>
        <time>2022-08-28T09:57:54Z</time>
      </trkpt>
      <trkpt lat="51.039402885362506" lon="5.05380037240684">
        <ele>-14.18</ele>
        <time>2022-08-28T09:58:05Z</time>
      </trkpt>
      <trkpt lat="51.039726259186864" lon="5.053809005767107">
        <ele>-14.18</ele>
        <time>2022-08-28T09:58:25Z</time>
      </trkpt>
      <trkpt lat="51.039874451234937" lon="5.053796097636223">
        <ele>-14.18</ele>
        <time>2022-08-28T09:58:29Z</time>
      </trkpt>
      <trkpt lat="51.04003831744194" lon="5.053877318277955">
        <ele>-14.210000000000001</ele>
        <time>2022-08-28T09:58:36Z</time>
      </trkpt>
      <trkpt lat="51.040061702951789" lon="5.053886119276285">
        <ele>-14.220000000000001</ele>
        <time>2022-08-28T09:58:37Z</time>
      </trkpt>
      <trkpt lat="51.040404522791505" lon="5.054040849208832">
        <ele>-14.31</ele>
        <time>2022-08-28T09:58:47Z</time>
      </trkpt>
      <trkpt lat="51.040519354864955" lon="5.054099606350064">
        <ele>-12.01</ele>
        <time>2022-08-28T09:58:51Z</time>
      </trkpt>
      <trkpt lat="51.041044816374779" lon="5.054538231343031">
        <ele>-11.33</ele>
        <time>2022-08-28T09:59:01Z</time>
      </trkpt>
      <trkpt lat="51.041211867704988" lon="5.054603023454547">
        <ele>-10.59</ele>
        <time>2022-08-28T09:59:15Z</time>
      </trkpt>
      <trkpt lat="51.04239396750927" lon="5.055264187976718">
        <ele>-6.77</ele>
        <time>2022-08-28T09:59:58Z</time>
      </trkpt>
      <trkpt lat="51.04248289950192" lon="5.0551563128829">
        <ele>-6.08</ele>
        <time>2022-08-28T10:00:03Z</time>
      </trkpt>
      <trkpt lat="51.042755730450153" lon="5.054759345948696">
        <ele>-5.66</ele>
        <time>2022-08-28T10:00:39Z</time>
      </trkpt>
      <trkpt lat="51.042955555021763" lon="5.054528005421162">
        <ele>-5.78</ele>
        <time>2022-08-28T10:00:57Z</time>
      </trkpt>
      <trkpt lat="51.043176501989365" lon="5.054191472008824">
        <ele>-5.92</ele>
        <time>2022-08-28T10:01:17Z</time>
      </trkpt>
      <trkpt lat="51.043359814211726" lon="5.053885113447905">
        <ele>-6.05</ele>
        <time>2022-08-28T10:01:34Z</time>
      </trkpt>
      <trkpt lat="51.043575396761298" lon="5.053548496216536">
        <ele>-6.09</ele>
        <time>2022-08-28T10:01:40Z</time>
      </trkpt>
      <trkpt lat="51.043866416439414" lon="5.0533845461905">
        <ele>-6.2</ele>
        <time>2022-08-28T10:01:52Z</time>
      </trkpt>
      <trkpt lat="51.044254498556256" lon="5.053086820989847">
        <ele>-8.52</ele>
        <time>2022-08-28T10:01:55Z</time>
      </trkpt>
      <trkpt lat="51.044905604794621" lon="5.052866796031594">
        <ele>-8.640000000000001</ele>
        <time>2022-08-28T10:02:11Z</time>
      </trkpt>
      <trkpt lat="51.045428467914462" lon="5.052853804081678">
        <ele>-8.779999999999999</ele>
        <time>2022-08-28T10:02:26Z</time>
      </trkpt>
      <trkpt lat="51.045695263892412" lon="5.052823629230261">
        <ele>-10.75</ele>
        <time>2022-08-28T10:02:49Z</time>
      </trkpt>
      <trkpt lat="51.046023163944483" lon="5.052745928987861">
        <ele>-12.59</ele>
        <time>2022-08-28T10:03:08Z</time>
      </trkpt>
      <trkpt lat="51.047358568757772" lon="5.052551804110408">
        <ele>-18.629999999999999</ele>
        <time>2022-08-28T10:05:08Z</time>
      </trkpt>
      <trkpt lat="51.052295509725809" lon="5.054076388478279">
        <ele>-19.530000000000001</ele>
        <time>2022-08-28T10:05:12Z</time>
      </trkpt>
      <trkpt lat="51.052055368199944" lon="5.055159581825137" />
    </trkseg>
  </trk>

</gpx>